createdAt,value
2022-08-17T00:00:18.259Z,5.50
2022-08-17T00:03:02.744Z,4.75
2022-08-17T00:05:33.861Z,5.75
2022-08-17T00:08:01.989Z,5.75
2022-08-17T00:10:32.250Z,6.00
2022-08-17T00:13:00.582Z,5.00
2022-08-17T00:15:28.753Z,5.25
2022-08-17T00:17:56.560Z,5.00
2022-08-17T00:20:29.217Z,5.00
2022-08-17T00:23:07.203Z,5.75
2022-08-17T00:25:34.989Z,6.00
2022-08-17T00:28:03.143Z,6.75
2022-08-17T00:30:31.019Z,6.00
2022-08-17T00:33:19.753Z,6.00
2022-08-17T00:35:48.202Z,5.50
2022-08-17T00:38:17.756Z,7.00
2022-08-17T00:40:46.559Z,5.00
2022-08-17T00:43:17.120Z,5.50
2022-08-17T00:45:44.949Z,6.75
2022-08-17T00:48:29.984Z,6.25
2022-08-17T00:51:01.703Z,5.50
2022-08-17T00:53:32.112Z,6.75
2022-08-17T00:56:00.569Z,7.00
2022-08-17T00:58:36.314Z,7.00
2022-08-17T01:01:04.893Z,6.75
2022-08-17T01:03:32.719Z,7.00
2022-08-17T01:06:01.389Z,6.00
2022-08-17T01:08:31.124Z,6.50
2022-08-17T01:11:01.936Z,6.50
2022-08-17T01:13:30.959Z,7.50
2022-08-17T01:16:00.762Z,6.00
2022-08-17T01:18:29.143Z,5.75
2022-08-17T01:20:57.579Z,7.00
2022-08-17T01:23:27.538Z,6.75
2022-08-17T01:25:56.492Z,6.00
2022-08-17T01:28:36.401Z,7.25
2022-08-17T01:31:12.551Z,6.00
2022-08-17T01:33:40.319Z,6.00
2022-08-17T01:36:08.900Z,6.50
2022-08-17T01:38:38.402Z,6.25
2022-08-17T01:41:07.951Z,7.00
2022-08-17T01:43:38.208Z,6.00
2022-08-17T01:46:06.351Z,6.00
2022-08-17T01:48:34.692Z,5.50
2022-08-17T01:51:02.888Z,7.50
2022-08-17T01:53:40.181Z,6.00
2022-08-17T01:56:09.358Z,6.00
2022-08-17T01:58:37.405Z,6.75
2022-08-17T02:01:05.598Z,5.75
2022-08-17T02:03:34.492Z,6.50
2022-08-17T02:06:02.514Z,8.00
2022-08-17T02:08:39.205Z,5.75
2022-08-17T02:11:24.935Z,6.00
2022-08-17T02:13:55.125Z,5.75
2022-08-17T02:16:37.376Z,6.25
2022-08-17T02:19:06.348Z,6.75
2022-08-17T02:21:34.231Z,6.50
2022-08-17T02:24:02.105Z,6.00
2022-08-17T02:26:31.717Z,7.00
2022-08-17T02:28:59.458Z,6.50
2022-08-17T02:31:27.233Z,6.00
2022-08-17T02:33:56.778Z,5.75
2022-08-17T02:36:32.447Z,7.50
2022-08-17T02:39:01.612Z,7.00
2022-08-17T02:41:31.015Z,6.00
2022-08-17T02:43:58.891Z,5.50
2022-08-17T02:46:27.084Z,7.00
2022-08-17T02:48:54.848Z,7.00
2022-08-17T02:51:22.663Z,7.00
2022-08-17T02:53:50.535Z,6.00
2022-08-17T02:56:18.582Z,6.00
2022-08-17T02:58:47.733Z,7.00
2022-08-17T03:01:15.679Z,7.00
2022-08-17T03:03:43.503Z,6.00
2022-08-17T03:06:11.747Z,6.25
2022-08-17T03:08:40.637Z,7.25
2022-08-17T03:11:08.470Z,6.75
2022-08-17T03:13:36.370Z,6.00
2022-08-17T03:16:05.950Z,7.00
2022-08-17T03:18:33.801Z,7.75
2022-08-17T03:21:04.196Z,7.00
2022-08-17T03:23:32.774Z,6.00
2022-08-17T03:26:00.867Z,6.00
2022-08-17T03:28:29.362Z,6.00
2022-08-17T03:30:57.189Z,6.00
2022-08-17T03:33:26.316Z,6.00
2022-08-17T03:35:54.147Z,7.00
2022-08-17T03:38:22.294Z,8.00
2022-08-17T03:40:56.593Z,6.00
2022-08-17T03:43:28.395Z,8.00
2022-08-17T03:46:34.138Z,7.00
2022-08-17T03:49:21.248Z,6.25
2022-08-17T03:52:06.417Z,6.50
2022-08-17T03:54:51.948Z,6.00
2022-08-17T03:57:20.365Z,6.75
2022-08-17T03:59:48.206Z,7.00
2022-08-17T04:02:18.749Z,6.00
2022-08-17T04:04:50.724Z,6.00
2022-08-17T04:07:19.362Z,6.75
2022-08-17T04:09:47.398Z,7.00
2022-08-17T04:12:15.751Z,7.50
2022-08-17T04:14:53.070Z,7.00
2022-08-17T04:17:23.428Z,7.00
2022-08-17T04:19:53.015Z,5.00
2022-08-17T04:22:31.045Z,6.00
2022-08-17T04:25:05.459Z,6.00
2022-08-17T04:27:33.620Z,7.00
2022-08-17T04:30:01.543Z,7.00
2022-08-17T04:33:04.943Z,7.00
2022-08-17T04:35:21.429Z,7.00
2022-08-17T04:37:49.513Z,6.75
2022-08-17T04:40:35.418Z,7.00
2022-08-17T04:43:04.351Z,5.50
2022-08-17T04:45:32.705Z,6.50
2022-08-17T04:48:01.003Z,8.25
2022-08-17T04:50:30.448Z,7.00
2022-08-17T04:52:58.927Z,7.50
2022-08-17T04:55:27.694Z,7.00
2022-08-17T04:57:58.846Z,6.25
2022-08-17T05:00:27.387Z,7.00
2022-08-17T05:02:56.015Z,6.50
2022-08-17T05:05:25.388Z,7.00
2022-08-17T05:07:55.440Z,6.25
2022-08-17T05:10:23.379Z,7.00
2022-08-17T05:12:58.645Z,6.75
2022-08-17T05:15:26.979Z,6.75
2022-08-17T05:17:54.914Z,8.00
2022-08-17T05:20:22.825Z,6.50
2022-08-17T05:22:51.241Z,8.00
2022-08-17T05:25:25.755Z,6.00
2022-08-17T05:27:54.358Z,6.75
2022-08-17T05:30:22.581Z,6.50
2022-08-17T05:32:54.673Z,6.00
2022-08-17T05:35:23.000Z,6.50
2022-08-17T05:37:51.105Z,7.00
2022-08-17T05:40:19.953Z,6.00
2022-08-17T05:42:49.335Z,7.00
2022-08-17T05:45:23.646Z,6.00
2022-08-17T05:48:07.295Z,6.00
2022-08-17T05:50:37.983Z,5.50
2022-08-17T05:53:08.497Z,7.00
2022-08-17T05:55:38.355Z,7.00
2022-08-17T05:58:12.855Z,6.25
2022-08-17T06:00:44.322Z,5.75
2022-08-17T06:03:30.421Z,7.25
2022-08-17T06:06:07.204Z,7.00
2022-08-17T06:08:37.220Z,6.00
2022-08-17T06:11:11.352Z,7.00
2022-08-17T06:13:47.219Z,6.75
2022-08-17T06:16:32.930Z,6.00
2022-08-17T06:19:04.466Z,6.25
2022-08-17T06:21:34.897Z,6.25
2022-08-17T06:24:05.601Z,6.50
2022-08-17T06:26:38.533Z,7.25
2022-08-17T06:29:18.602Z,6.00
2022-08-17T06:31:46.826Z,6.75
2022-08-17T06:34:15.031Z,7.00
2022-08-17T06:36:48.825Z,5.25
2022-08-17T06:39:26.586Z,7.00
2022-08-17T06:41:58.183Z,6.00
2022-08-17T06:44:43.433Z,6.00
2022-08-17T06:47:28.726Z,6.75
2022-08-17T06:50:02.086Z,5.75
2022-08-17T06:52:45.316Z,6.25
2022-08-17T06:55:18.717Z,6.25
2022-08-17T06:57:49.648Z,7.00
2022-08-17T07:00:20.160Z,7.00
2022-08-17T07:02:53.075Z,6.25
2022-08-17T07:05:24.164Z,6.00
2022-08-17T07:08:04.832Z,6.00
2022-08-17T07:10:37.015Z,5.75
2022-08-17T07:13:26.514Z,5.50
2022-08-17T07:16:00.607Z,6.25
2022-08-17T07:18:28.854Z,6.00
2022-08-17T07:20:59.069Z,5.75
2022-08-17T07:23:29.887Z,6.00
2022-08-17T07:26:05.598Z,7.00
2022-08-17T07:28:33.379Z,6.00
2022-08-17T07:31:03.819Z,7.00
2022-08-17T07:33:36.845Z,6.00
2022-08-17T07:36:05.711Z,5.50
2022-08-17T07:38:35.456Z,7.00
2022-08-17T07:41:05.198Z,7.00
2022-08-17T07:43:33.539Z,6.50
2022-08-17T07:46:22.987Z,6.00
2022-08-17T07:48:51.648Z,6.00
2022-08-17T07:51:28.055Z,5.75
2022-08-17T07:54:13.191Z,6.25
2022-08-17T07:56:45.014Z,6.00
2022-08-17T07:59:15.826Z,6.25
2022-08-17T08:01:46.736Z,6.75
2022-08-17T08:04:59.185Z,6.00
2022-08-17T08:07:25.218Z,7.00
2022-08-17T08:10:02.103Z,7.00
2022-08-17T08:12:33.991Z,5.25
2022-08-17T08:15:05.001Z,5.75
2022-08-17T08:17:36.569Z,7.00
2022-08-17T08:20:50.817Z,6.00
2022-08-17T08:23:01.637Z,7.00
2022-08-17T08:25:38.731Z,6.00
2022-08-17T08:28:11.736Z,6.00
2022-08-17T08:30:42.542Z,6.00
2022-08-17T08:33:18.464Z,6.00
2022-08-17T08:35:49.933Z,7.00
2022-08-17T08:38:23.537Z,5.75
2022-08-17T08:40:58.469Z,7.00
2022-08-17T08:43:30.525Z,6.00
2022-08-17T08:46:01.918Z,6.00
2022-08-17T08:48:53.226Z,6.50
2022-08-17T08:51:29.654Z,6.50
2022-08-17T08:54:00.706Z,7.50
2022-08-17T08:56:32.822Z,7.50
2022-08-17T08:59:03.459Z,7.75
2022-08-17T09:01:34.377Z,6.25
2022-08-17T09:04:25.248Z,6.00
2022-08-17T09:06:59.641Z,7.00
2022-08-17T09:09:31.688Z,7.00
2022-08-17T09:12:03.861Z,6.00
2022-08-17T09:14:45.114Z,8.00
2022-08-17T09:17:16.499Z,7.00
2022-08-17T09:19:49.160Z,7.00
2022-08-17T09:22:23.700Z,6.75
2022-08-17T09:24:57.225Z,6.75
2022-08-17T09:27:28.258Z,7.00
2022-08-17T09:29:58.377Z,7.00
2022-08-17T09:32:29.251Z,6.00
2022-08-17T09:35:01.471Z,8.00
2022-08-17T09:37:32.584Z,6.75
2022-08-17T09:40:09.103Z,7.00
2022-08-17T09:42:40.888Z,7.00
2022-08-17T09:45:25.793Z,7.25
2022-08-17T09:47:56.890Z,7.00
2022-08-17T09:50:57.368Z,8.00
2022-08-17T09:53:17.072Z,7.00
2022-08-17T09:55:53.357Z,7.50
2022-08-17T09:58:24.189Z,8.00
2022-08-17T10:01:01.806Z,7.00
2022-08-17T10:03:46.068Z,8.75
2022-08-17T10:06:22.031Z,6.75
2022-08-17T10:08:53.090Z,7.00
2022-08-17T10:11:45.686Z,7.50
2022-08-17T10:14:36.785Z,7.75
2022-08-17T10:17:10.132Z,7.00
2022-08-17T10:19:44.069Z,7.00
2022-08-17T10:22:44.076Z,7.75
2022-08-17T10:25:42.917Z,6.75
2022-08-17T10:28:20.120Z,8.00
2022-08-17T10:30:49.688Z,6.25
2022-08-17T10:33:18.827Z,7.50
2022-08-17T10:35:48.459Z,7.00
2022-08-17T10:38:31.681Z,8.00
2022-08-17T10:41:02.949Z,7.50
2022-08-17T10:44:37.539Z,8.00
2022-08-17T10:47:01.746Z,8.00
2022-08-17T10:49:34.021Z,7.25
2022-08-17T10:52:02.765Z,8.00
2022-08-17T10:54:42.829Z,8.25
2022-08-17T10:57:36.313Z,7.75
2022-08-17T11:00:10.252Z,7.00
2022-08-17T11:02:51.494Z,7.25
2022-08-17T11:05:44.373Z,8.75
2022-08-17T11:08:36.236Z,9.00
2022-08-17T11:11:45.387Z,7.00
2022-08-17T11:14:24.834Z,7.50
2022-08-17T11:17:05.893Z,8.50
2022-08-17T11:20:13.625Z,6.75
2022-08-17T11:23:23.924Z,8.50
2022-08-17T11:25:53.174Z,8.00
2022-08-17T11:28:25.176Z,7.25
2022-08-17T11:30:55.661Z,7.00
2022-08-17T11:33:54.077Z,8.00
2022-08-17T11:36:49.420Z,8.00
2022-08-17T11:39:29.201Z,9.00
2022-08-17T11:42:01.723Z,8.00
2022-08-17T11:44:38.756Z,8.50
2022-08-17T11:47:41.282Z,7.00
2022-08-17T11:50:59.290Z,8.00
2022-08-17T11:54:30.574Z,8.50
2022-08-17T11:56:49.298Z,7.00
2022-08-17T11:59:58.545Z,8.00
2022-08-17T12:02:38.844Z,8.25
2022-08-17T12:05:27.479Z,8.00
2022-08-17T12:08:07.251Z,8.00
2022-08-17T12:10:37.085Z,8.00
2022-08-17T12:13:07.675Z,9.00
2022-08-17T12:15:37.158Z,8.00
2022-08-17T12:18:06.587Z,9.00
2022-08-17T12:20:36.600Z,9.00
2022-08-17T12:23:07.739Z,8.00
2022-08-17T12:25:37.449Z,9.00
2022-08-17T12:28:07.611Z,7.00
2022-08-17T12:30:36.094Z,9.00
2022-08-17T12:33:03.929Z,8.25
2022-08-17T12:35:35.497Z,8.75
2022-08-17T12:38:03.423Z,9.00
2022-08-17T12:40:32.439Z,7.75
2022-08-17T12:43:01.592Z,8.00
2022-08-17T12:45:30.769Z,9.00
2022-08-17T12:48:02.705Z,9.00
2022-08-17T12:50:32.218Z,9.75
2022-08-17T12:53:02.685Z,8.50
2022-08-17T12:55:33.953Z,8.50
2022-08-17T12:58:02.612Z,8.25
2022-08-17T13:00:31.669Z,8.00
2022-08-17T13:03:00.568Z,8.00
2022-08-17T13:05:30.930Z,9.00
2022-08-17T13:08:01.133Z,9.00
2022-08-17T13:10:32.713Z,8.25
2022-08-17T13:13:04.903Z,9.75
2022-08-17T13:15:37.000Z,9.75
2022-08-17T13:18:07.807Z,9.50
2022-08-17T13:20:35.803Z,10.00
2022-08-17T13:23:12.339Z,8.00
2022-08-17T13:25:40.562Z,8.75
2022-08-17T13:28:08.395Z,8.75
2022-08-17T13:30:36.230Z,8.75
2022-08-17T13:33:04.730Z,10.00
2022-08-17T13:35:40.548Z,9.00
2022-08-17T13:38:12.373Z,9.25
2022-08-17T13:40:43.317Z,9.50
2022-08-17T13:43:11.232Z,9.50
2022-08-17T13:45:50.356Z,8.25
2022-08-17T13:48:22.706Z,7.75
2022-08-17T13:51:06.857Z,9.00
2022-08-17T13:53:51.548Z,8.00
2022-08-17T13:56:33.544Z,9.00
2022-08-17T13:59:08.146Z,9.25
2022-08-17T14:01:38.358Z,10.00
2022-08-17T14:04:07.381Z,10.00
2022-08-17T14:06:52.251Z,10.00
2022-08-17T14:09:24.042Z,9.00
2022-08-17T14:11:52.150Z,10.00
2022-08-17T14:14:20.286Z,8.00
2022-08-17T14:16:48.461Z,9.00
2022-08-17T14:19:16.863Z,10.00
2022-08-17T14:21:45.403Z,9.50
2022-08-17T14:24:20.120Z,10.00
2022-08-17T14:26:49.303Z,9.75
2022-08-17T14:29:17.136Z,9.00
2022-08-17T14:31:49.665Z,8.50
2022-08-17T14:34:22.179Z,10.00
2022-08-17T14:36:50.246Z,9.00
2022-08-17T14:39:18.504Z,9.00
2022-08-17T14:41:46.339Z,9.00
2022-08-17T14:44:15.573Z,10.00
2022-08-17T14:46:44.202Z,9.00
2022-08-17T14:49:12.794Z,10.00
2022-08-17T14:51:44.505Z,9.00
2022-08-17T14:54:32.662Z,10.25
2022-08-17T14:57:11.561Z,10.00
2022-08-17T14:59:53.400Z,10.25
2022-08-17T15:02:29.624Z,9.00
2022-08-17T15:04:59.810Z,10.25
2022-08-17T15:07:30.887Z,9.00
2022-08-17T15:10:00.595Z,10.25
2022-08-17T15:12:32.706Z,11.00
2022-08-17T15:15:04.929Z,11.00
2022-08-17T15:17:44.862Z,10.00
2022-08-17T15:20:15.136Z,9.50
2022-08-17T15:22:43.383Z,10.75
2022-08-17T15:25:11.913Z,10.75
2022-08-17T15:27:40.342Z,11.00
2022-08-17T15:30:13.074Z,11.00
2022-08-17T15:32:51.396Z,10.00
2022-08-17T15:35:27.084Z,10.00
2022-08-17T15:37:56.920Z,10.00
2022-08-17T15:40:25.128Z,11.00
2022-08-17T15:42:53.021Z,10.25
2022-08-17T15:45:24.583Z,11.00
2022-08-17T15:47:53.245Z,9.50
2022-08-17T15:50:21.120Z,11.00
2022-08-17T15:52:48.912Z,12.00
2022-08-17T15:55:18.745Z,11.00
2022-08-17T15:57:54.512Z,12.25
2022-08-17T16:00:29.619Z,10.00
2022-08-17T16:03:45.180Z,9.50
2022-08-17T16:05:50.218Z,10.00
2022-08-17T16:08:21.307Z,10.00
2022-08-17T16:10:49.624Z,10.00
2022-08-17T16:13:18.216Z,10.50
2022-08-17T16:15:56.578Z,11.00
2022-08-17T16:18:25.937Z,10.00
2022-08-17T16:20:55.083Z,11.00
2022-08-17T16:23:22.909Z,11.00
2022-08-17T16:25:53.101Z,11.00
2022-08-17T16:28:21.940Z,10.75
2022-08-17T16:30:51.120Z,10.00
2022-08-17T16:33:19.247Z,9.75
2022-08-17T16:35:47.200Z,12.00
2022-08-17T16:38:15.285Z,11.50
2022-08-17T16:40:43.118Z,11.00
2022-08-17T16:43:11.998Z,11.00
2022-08-17T16:45:40.669Z,10.50
2022-08-17T16:48:11.593Z,11.00
2022-08-17T16:50:40.316Z,11.75
2022-08-17T16:53:10.589Z,10.75
2022-08-17T16:55:38.850Z,12.00
2022-08-17T16:58:08.827Z,11.00
2022-08-17T17:00:36.911Z,10.75
2022-08-17T17:03:18.983Z,10.25
2022-08-17T17:05:57.978Z,11.25
2022-08-17T17:08:28.438Z,11.00
2022-08-17T17:10:56.844Z,11.25
2022-08-17T17:13:27.429Z,10.75
2022-08-17T17:15:57.703Z,10.00
2022-08-17T17:18:30.592Z,11.00
2022-08-17T17:21:00.438Z,10.00
2022-08-17T17:23:38.935Z,10.00
2022-08-17T17:26:23.743Z,9.75
2022-08-17T17:28:59.505Z,10.00
2022-08-17T17:31:28.640Z,10.50
2022-08-17T17:33:57.967Z,10.00
2022-08-17T17:36:28.449Z,9.75
2022-08-17T17:38:59.289Z,10.00
2022-08-17T17:41:30.045Z,10.00
2022-08-17T17:44:02.934Z,10.00
2022-08-17T17:46:33.327Z,10.00
2022-08-17T17:49:01.091Z,10.00
2022-08-17T17:52:03.601Z,11.00
2022-08-17T17:54:32.455Z,9.50
2022-08-17T17:57:03.315Z,10.00
2022-08-17T17:59:40.490Z,10.25
2022-08-17T18:02:42.056Z,10.50
2022-08-17T18:05:34.110Z,11.00
2022-08-17T18:08:10.811Z,10.25
2022-08-17T18:10:42.981Z,9.75
2022-08-17T18:13:20.532Z,10.00
2022-08-17T18:15:51.209Z,11.25
2022-08-17T18:18:37.849Z,10.00
2022-08-17T18:21:15.795Z,11.00
2022-08-17T18:23:58.705Z,9.25
2022-08-17T18:26:45.625Z,10.25
2022-08-17T18:29:26.026Z,10.75
2022-08-17T18:32:13.522Z,10.00
2022-08-17T18:34:47.528Z,10.00
2022-08-17T18:37:46.036Z,10.00
2022-08-17T18:40:37.625Z,10.00
2022-08-17T18:43:11.491Z,9.75
2022-08-17T18:45:43.400Z,10.00
2022-08-17T18:48:29.384Z,11.00
2022-08-17T18:50:59.034Z,9.50
2022-08-17T18:53:38.297Z,10.00
2022-08-17T18:56:35.556Z,9.00
2022-08-17T18:59:17.861Z,10.00
2022-08-17T19:01:53.459Z,9.00
2022-08-17T19:04:33.985Z,9.75
2022-08-17T19:07:08.957Z,10.00
2022-08-17T19:09:37.931Z,9.00
2022-08-17T19:12:09.272Z,9.25
2022-08-17T19:14:37.397Z,10.00
2022-08-17T19:17:07.266Z,10.00
2022-08-17T19:19:38.122Z,9.00
2022-08-17T19:22:11.137Z,10.00
2022-08-17T19:24:45.219Z,10.75
2022-08-17T19:27:18.985Z,11.00
2022-08-17T19:29:50.155Z,10.00
2022-08-17T19:32:23.167Z,9.25
2022-08-17T19:34:51.038Z,9.25
2022-08-17T19:37:25.690Z,9.00
2022-08-17T19:40:04.848Z,10.00
2022-08-17T19:42:41.248Z,10.00
2022-08-17T19:45:15.942Z,10.25
2022-08-17T19:47:58.599Z,9.50
2022-08-17T19:50:33.027Z,8.25
2022-08-17T19:53:03.105Z,10.00
2022-08-17T19:55:33.094Z,11.25
2022-08-17T19:58:06.597Z,9.00
2022-08-17T20:00:36.254Z,9.00
2022-08-17T20:03:06.448Z,8.00
2022-08-17T20:06:01.026Z,8.00
2022-08-17T20:08:25.556Z,9.75
2022-08-17T20:10:55.322Z,10.00
2022-08-17T20:13:33.586Z,9.25
2022-08-17T20:16:02.401Z,8.75
2022-08-17T20:18:32.982Z,9.00
2022-08-17T20:21:02.967Z,9.75
2022-08-17T20:23:36.764Z,10.00
2022-08-17T20:26:10.638Z,10.75
2022-08-17T20:28:40.064Z,10.00
2022-08-17T20:31:37.552Z,9.00
2022-08-17T20:34:34.860Z,9.00
2022-08-17T20:37:07.776Z,9.25
2022-08-17T20:39:39.259Z,9.00
2022-08-17T20:42:28.476Z,9.00
2022-08-17T20:44:58.840Z,9.00
2022-08-17T20:47:28.568Z,9.25
2022-08-17T20:49:57.925Z,9.25
2022-08-17T20:52:48.980Z,8.75
2022-08-17T20:55:53.066Z,8.50
2022-08-17T20:58:47.241Z,9.75
2022-08-17T21:01:25.243Z,10.00
2022-08-17T21:03:54.215Z,8.75
2022-08-17T21:06:24.105Z,10.00
2022-08-17T21:08:54.455Z,9.50
2022-08-17T21:11:58.215Z,9.25
2022-08-17T21:14:43.320Z,9.75
2022-08-17T21:17:26.366Z,9.75
2022-08-17T21:20:11.138Z,10.00
2022-08-17T21:22:48.297Z,9.25
2022-08-17T21:25:24.768Z,9.75
2022-08-17T21:27:59.621Z,9.75
2022-08-17T21:30:47.645Z,8.75
2022-08-17T21:33:27.563Z,8.75
2022-08-17T21:36:11.850Z,9.00
2022-08-17T21:38:41.607Z,9.25
2022-08-17T21:41:18.967Z,9.00
2022-08-17T21:43:48.707Z,9.00
2022-08-17T21:46:24.344Z,9.00
2022-08-17T21:48:54.832Z,9.00
2022-08-17T21:51:23.995Z,10.00
2022-08-17T21:53:53.642Z,9.00
2022-08-17T21:56:24.032Z,9.00
2022-08-17T21:58:56.738Z,8.50
2022-08-17T22:01:25.785Z,10.00
2022-08-17T22:04:05.464Z,9.00
2022-08-17T22:06:36.786Z,9.00
2022-08-17T22:09:17.185Z,10.00
2022-08-17T22:11:52.770Z,10.00
2022-08-17T22:14:22.362Z,9.00
2022-08-17T22:16:50.586Z,9.00
2022-08-17T22:19:21.123Z,10.00
2022-08-17T22:21:48.922Z,9.75
2022-08-17T22:24:21.627Z,9.50
2022-08-17T22:27:07.976Z,10.00
2022-08-17T22:29:57.230Z,9.75
2022-08-17T22:32:40.844Z,9.00
2022-08-17T22:35:40.344Z,9.75
2022-08-17T22:38:35.704Z,9.75
2022-08-17T22:41:43.126Z,9.00
2022-08-17T22:44:17.912Z,9.50
2022-08-17T22:47:00.637Z,10.00
2022-08-17T22:49:30.982Z,9.00
2022-08-17T22:52:09.319Z,11.00
2022-08-17T22:54:54.669Z,9.00
2022-08-17T22:57:51.390Z,9.75
2022-08-17T23:00:29.980Z,8.25
2022-08-17T23:03:13.928Z,9.25
2022-08-17T23:05:43.535Z,10.00
2022-08-17T23:08:13.505Z,10.00
2022-08-17T23:10:42.276Z,9.00
2022-08-17T23:13:11.952Z,10.00
2022-08-17T23:15:40.770Z,9.00
2022-08-17T23:18:08.629Z,9.25
2022-08-17T23:20:36.862Z,11.00
2022-08-17T23:23:06.671Z,10.00
2022-08-17T23:25:36.181Z,10.00
2022-08-17T23:28:06.202Z,9.25
2022-08-17T23:30:36.741Z,10.50
2022-08-17T23:33:06.330Z,9.75
2022-08-17T23:35:39.736Z,9.00
2022-08-17T23:38:10.286Z,11.00
2022-08-17T23:40:39.926Z,9.00
2022-08-17T23:43:17.551Z,11.00
2022-08-17T23:45:53.153Z,10.00
2022-08-17T23:48:28.619Z,10.00
2022-08-17T23:51:04.723Z,9.75
2022-08-17T23:53:34.818Z,10.75
2022-08-17T23:56:10.121Z,8.00
2022-08-17T23:58:39.522Z,9.25
